Terminal Aerodrome Forecast
Issued by NWS

Home | Current Version | Previous Version | Graphics & Text | Print | Product List | Glossary On
Versions: 1 2 3 4 5 6 7 8 9 10 11 12 13 14 15
000
FTUS43 KTOP 211700
TAFMHK
TAF
KMHK 211720Z 2118/2218 36010G18KT P6SM SKC
     FM212200 VRB03KT P6SM SKC
     FM221000 00000KT 5SM BR SKC
     FM221200 07004KT P6SM SKC=

USA.gov is the U.S. government's official web portal to all federal, state and local government web resources and services.